Observation data for Plainview on 02/13/2018      Previous  Date  Next       Current Mesonet Observations  Soil Data  Daily Summary Page  Observations in Plain Language
KPVS 130600Z 10005KT M03/M11 A3024 RMK A01 T10281107  RH  055%=      5-min Rain = 0
KPVS 130605Z 09006KT M03/M11 A3024 RMK A01 T10301107  RH  056%=      5-min Rain = 0
KPVS 130610Z 10006KT M03/M11 A3024 RMK A01 T10301107  RH  056%=      5-min Rain = 0
KPVS 130615Z 10007KT M03/M11 A3024 RMK A01 T10301106  RH  056%=      5-min Rain = 0
KPVS 130620Z 09005KT M03/M11 A3024 RMK A01 T10291105  RH  057%=      5-min Rain = 0
KPVS 130625Z 09005KT M03/M10 A3025 RMK A01 T10301104  RH  057%=      5-min Rain = 0
KPVS 130630Z 09004KT M03/M10 A3025 RMK A01 T10311104  RH  058%=      5-min Rain = 0
KPVS 130635Z 06004KT M03/M11 A3025 RMK A01 T10331105  RH  058%=      5-min Rain = 0
KPVS 130640Z 06006KT M03/M11 A3025 RMK A01 T10331106  RH  058%=      5-min Rain = 0
KPVS 130645Z 06006KT M03/M11 A3025 RMK A01 T10331107  RH  057%=      5-min Rain = 0
KPVS 130650Z 07005KT M03/M11 A3026 RMK A01 T10301105  RH  057%=      5-min Rain = 0
KPVS 130655Z 07004KT M03/M11 A3025 RMK A01 T10311106  RH  057%=      5-min Rain = 0
KPVS 130700Z 07004KT M03/M11 A3025 RMK A01 T10321105  RH  058%=      5-min Rain = 0
KPVS 130705Z 06004KT M03/M11 A3025 RMK A01 T10331106  RH  058%=      5-min Rain = 0
KPVS 130710Z 07004KT M03/M11 A3025 RMK A01 T10341106  RH  058%=      5-min Rain = 0
KPVS 130715Z 08004KT M04/M11 A3025 RMK A01 T10351107  RH  058%=      5-min Rain = 0
KPVS 130720Z 08004KT M04/M11 A3025 RMK A01 T10371108  RH  059%=      5-min Rain = 0
KPVS 130725Z 09004KT M04/M11 A3025 RMK A01 T10371108  RH  059%=      5-min Rain = 0
KPVS 130730Z 09005KT M04/M11 A3025 RMK A01 T10391110  RH  058%=      5-min Rain = 0
KPVS 130735Z 09004KT M04/M11 A3025 RMK A01 T10431113  RH  059%=      5-min Rain = 0
KPVS 130740Z 08004KT M05/M11 A3025 RMK A01 T10451114  RH  060%=      5-min Rain = 0
KPVS 130745Z 08004KT M05/M11 A3025 RMK A01 T10461113  RH  060%=      5-min Rain = 0
KPVS 130750Z 09003KT M05/M11 A3024 RMK A01 T10451112  RH  060%=      5-min Rain = 0
KPVS 130755Z 08004KT M04/M11 A3024 RMK A01 T10441110  RH  061%=      5-min Rain = 0
KPVS 130800Z 09004KT M04/M11 A3024 RMK A01 T10431111  RH  060%=      5-min Rain = 0
KPVS 130805Z 10004KT M04/M11 A3024 RMK A01 T10441111  RH  060%=      5-min Rain = 0
KPVS 130810Z 10004KT M04/M11 A3024 RMK A01 T10441110  RH  061%=      5-min Rain = 0
KPVS 130815Z 09004KT M05/M11 A3024 RMK A01 T10461111  RH  061%=      5-min Rain = 0
KPVS 130820Z 08004KT M05/M11 A3024 RMK A01 T10481111  RH  062%=      5-min Rain = 0
KPVS 130825Z 09004KT M05/M11 A3024 RMK A01 T10491109  RH  064%=      5-min Rain = 0
KPVS 130830Z 09004KT M05/M11 A3023 RMK A01 T10491108  RH  064%=      5-min Rain = 0
KPVS 130835Z 09004KT M05/M11 A3023 RMK A01 T10491109  RH  064%=      5-min Rain = 0
KPVS 130840Z 08004KT M05/M11 A3023 RMK A01 T10511109  RH  064%=      5-min Rain = 0
KPVS 130845Z 08004KT M05/M11 A3023 RMK A01 T10531109  RH  065%=      5-min Rain = 0
KPVS 130850Z 08006KT M06/M11 A3023 RMK A01 T10551108  RH  067%=      5-min Rain = 0
KPVS 130855Z 08005KT M05/M11 A3023 RMK A01 T10541106  RH  068%=      5-min Rain = 0
KPVS 130900Z 09004KT M05/M10 A3023 RMK A01 T10531104  RH  068%=      5-min Rain = 0
KPVS 130905Z 10004KT M05/M10 A3023 RMK A01 T10521104  RH  068%=      5-min Rain = 0
KPVS 130910Z 11003KT M05/M10 A3023 RMK A01 T10521104  RH  068%=      5-min Rain = 0
KPVS 130915Z 10003KT M05/M10 A3023 RMK A01 T10531104  RH  068%=      5-min Rain = 0
KPVS 130920Z 10003KT M05/M10 A3023 RMK A01 T10541103  RH  069%=      5-min Rain = 0
KPVS 130925Z 11003KT M05/M10 A3023 RMK A01 T10541102  RH  070%=      5-min Rain = 0
KPVS 130930Z 09002KT M05/M10 A3023 RMK A01 T10541102  RH  070%=      5-min Rain = 0
KPVS 130935Z 04002KT M06/M10 A3024 RMK A01 T10551103  RH  070%=      5-min Rain = 0
KPVS 130940Z 01002KT M06/M10 A3024 RMK A01 T10551101  RH  071%=      5-min Rain = 0
KPVS 130945Z 05003KT M05/M10 A3025 RMK A01 T10521097  RH  072%=      5-min Rain = 0
KPVS 130950Z 07004KT M05/M09 A3024 RMK A01 T10501093  RH  072%=      5-min Rain = 0
KPVS 130955Z 09003KT M05/M09 A3025 RMK A01 T10491093  RH  072%=      5-min Rain = 0
KPVS 131000Z 05002KT M05/M09 A3025 RMK A01 T10501094  RH  072%=      5-min Rain = 0
KPVS 131005Z 03003KT M05/M10 A3025 RMK A01 T10511096  RH  072%=      5-min Rain = 0
KPVS 131010Z 03003KT M05/M10 A3026 RMK A01 T10501095  RH  071%=      5-min Rain = 0
KPVS 131015Z 05003KT M05/M10 A3025 RMK A01 T10501097  RH  071%=      5-min Rain = 0
KPVS 131020Z 05003KT M05/M10 A3025 RMK A01 T10531100  RH  070%=      5-min Rain = 0
KPVS 131025Z 04003KT M05/M10 A3025 RMK A01 T10541100  RH  071%=      5-min Rain = 0
KPVS 131030Z 03002KT M05/M10 A3025 RMK A01 T10531098  RH  072%=      5-min Rain = 0
KPVS 131035Z 07002KT M05/M10 A3025 RMK A01 T10541098  RH  072%=      5-min Rain = 0
KPVS 131040Z 09002KT M05/M10 A3024 RMK A01 T10541100  RH  071%=      5-min Rain = 0
KPVS 131045Z 07003KT M06/M10 A3024 RMK A01 T10561102  RH  071%=      5-min Rain = 0
KPVS 131050Z 05002KT M06/M10 A3024 RMK A01 T10591104  RH  071%=      5-min Rain = 0
KPVS 131055Z 07003KT M06/M10 A3024 RMK A01 T10591102  RH  073%=      5-min Rain = 0
KPVS 131100Z 06003KT M06/M10 A3023 RMK A01 T10591101  RH  073%=      5-min Rain = 0
KPVS 131105Z 08002KT M06/M10 A3024 RMK A01 T10591100  RH  074%=      5-min Rain = 0
KPVS 131110Z 06002KT M06/M10 A3024 RMK A01 T10591099  RH  074%=      5-min Rain = 0
KPVS 131115Z 03003KT M06/M10 A3024 RMK A01 T10601102  RH  073%=      5-min Rain = 0
KPVS 131120Z 05002KT M06/M10 A3023 RMK A01 T10591098  RH  075%=      5-min Rain = 0
KPVS 131125Z 08002KT M06/M10 A3023 RMK A01 T10581098  RH  074%=      5-min Rain = 0
KPVS 131130Z 07001KT M06/M10 A3024 RMK A01 T10591099  RH  074%=      5-min Rain = 0
KPVS 131135Z 03002KT M06/M10 A3024 RMK A01 T10601099  RH  075%=      5-min Rain = 0
KPVS 131140Z 04002KT M06/M10 A3024 RMK A01 T10591097  RH  076%=      5-min Rain = 0
KPVS 131145Z 06002KT M06/M10 A3024 RMK A01 T10571095  RH  076%=      5-min Rain = 0
KPVS 131150Z 03002KT M06/M10 A3025 RMK A01 T10581098  RH  075%=      5-min Rain = 0
KPVS 131155Z 02002KT M06/M10 A3025 RMK A01 T10601098  RH  076%=      5-min Rain = 0
KPVS 131200Z 04002KT M06/M10 A3025 RMK A01 T10591098  RH  075%=      5-min Rain = 0
KPVS 131205Z 05002KT M06/M10 A3025 RMK A01 T10601099  RH  075%=      5-min Rain = 0
KPVS 131210Z 05002KT M06/M10 A3025 RMK A01 T10611100  RH  075%=      5-min Rain = 0
KPVS 131215Z 06003KT M06/M10 A3025 RMK A01 T10621102  RH  075%=      5-min Rain = 0
KPVS 131220Z 06003KT M06/M10 A3025 RMK A01 T10631101  RH  075%=      5-min Rain = 0
KPVS 131225Z 05003KT M06/M10 A3026 RMK A01 T10621100  RH  075%=      5-min Rain = 0
KPVS 131230Z 07003KT M06/M10 A3026 RMK A01 T10621099  RH  076%=      5-min Rain = 0
KPVS 131235Z 08004KT M06/M10 A3026 RMK A01 T10621097  RH  077%=      5-min Rain = 0
KPVS 131240Z 05002KT M06/M10 A3026 RMK A01 T10641098  RH  077%=      5-min Rain = 0
KPVS 131245Z 03002KT M06/M10 A3026 RMK A01 T10631097  RH  078%=      5-min Rain = 0
KPVS 131250Z 03002KT M06/M10 A3026 RMK A01 T10621096  RH  078%=      5-min Rain = 0
KPVS 131255Z 04003KT M06/M10 A3026 RMK A01 T10621096  RH  078%=      5-min Rain = 0
KPVS 131300Z 03002KT M06/M10 A3027 RMK A01 T10631096  RH  078%=      5-min Rain = 0
KPVS 131305Z 04002KT M06/M10 A3027 RMK A01 T10621095  RH  079%=      5-min Rain = 0
KPVS 131310Z 04003KT M06/M10 A3027 RMK A01 T10621095  RH  079%=      5-min Rain = 0
KPVS 131315Z 06002KT M06/M10 A3027 RMK A01 T10631095  RH  079%=      5-min Rain = 0
KPVS 131320Z 05003KT M06/M10 A3027 RMK A01 T10641096  RH  079%=      5-min Rain = 0
KPVS 131325Z 03003KT M06/M10 A3027 RMK A01 T10641096  RH  079%=      5-min Rain = 0
KPVS 131330Z 04003KT M06/M09 A3027 RMK A01 T10621093  RH  079%=      5-min Rain = 0
KPVS 131335Z 03003KT M06/M09 A3027 RMK A01 T10611092  RH  080%=      5-min Rain = 0
KPVS 131340Z 05003KT M06/M09 A3028 RMK A01 T10601090  RH  081%=      5-min Rain = 0
KPVS 131345Z 07002KT M06/M09 A3028 RMK A01 T10601091  RH  080%=      5-min Rain = 0
KPVS 131350Z 05002KT M06/M09 A3028 RMK A01 T10611092  RH  080%=      5-min Rain = 0
KPVS 131355Z 04003KT M06/M09 A3028 RMK A01 T10591089  RH  080%=      5-min Rain = 0
KPVS 131400Z 05003KT M06/M09 A3028 RMK A01 T10571088  RH  080%=      5-min Rain = 0
KPVS 131405Z 05003KT M06/M09 A3028 RMK A01 T10561087  RH  080%=      5-min Rain = 0
KPVS 131410Z 05002KT M06/M09 A3028 RMK A01 T10551085  RH  080%=      5-min Rain = 0
KPVS 131415Z 08003KT M05/M08 A3028 RMK A01 T10531082  RH  081%=      5-min Rain = 0
KPVS 131420Z 08002KT M05/M08 A3029 RMK A01 T10501080  RH  081%=      5-min Rain = 0
KPVS 131425Z 08002KT M05/M08 A3029 RMK A01 T10491079  RH  081%=      5-min Rain = 0
KPVS 131430Z 10003KT M05/M08 A3028 RMK A01 T10481078  RH  080%=      5-min Rain = 0
KPVS 131435Z 10002KT M05/M08 A3029 RMK A01 T10461075  RH  081%=      5-min Rain = 0
KPVS 131440Z 08002KT M04/M08 A3029 RMK A01 T10441075  RH  080%=      5-min Rain = 0
KPVS 131445Z 08002KT M04/M08 A3029 RMK A01 T10431075  RH  080%=      5-min Rain = 0
KPVS 131450Z 08002KT M04/M07 A3029 RMK A01 T10421073  RH  080%=      5-min Rain = 0
KPVS 131455Z 13002KT M04/M07 A3029 RMK A01 T10391071  RH  079%=      5-min Rain = 0
KPVS 131500Z 13003KT M04/M07 A3029 RMK A01 T10361068  RH  079%=      5-min Rain = 0
KPVS 131505Z 14002KT M03/M06 A3029 RMK A01 T10331064  RH  080%=      5-min Rain = 0
KPVS 131510Z 14002KT M03/M06 A303 RMK A01 T10301061  RH  080%=      5-min Rain = 0
KPVS 131515Z 13002KT M03/M06 A303 RMK A01 T10291062  RH  079%=      5-min Rain = 0
KPVS 131520Z 16002KT M03/M06 A303 RMK A01 T10271060  RH  079%=      5-min Rain = 0
KPVS 131525Z 18002KT M02/M06 A3031 RMK A01 T10231058  RH  078%=      5-min Rain = 0
KPVS 131530Z 15002KT M02/M06 A3031 RMK A01 T10211057  RH  077%=      5-min Rain = 0
KPVS 131535Z 15003KT M02/M06 A3031 RMK A01 T10171056  RH  076%=      5-min Rain = 0
KPVS 131540Z 18003KT M02/M06 A3031 RMK A01 T10151057  RH  074%=      5-min Rain = 0
KPVS 131545Z 16003KT M01/M06 A3031 RMK A01 T10141056  RH  074%=      5-min Rain = 0
KPVS 131550Z 17003KT M01/M06 A3032 RMK A01 T10111055  RH  073%=      5-min Rain = 0
KPVS 131555Z 17003KT M01/M05 A3031 RMK A01 T10071053  RH  072%=      5-min Rain = 0
KPVS 131600Z 16004KT M00/M05 A3031 RMK A01 T10031051  RH  071%=      5-min Rain = 0
KPVS 131605Z 18004KT 00/M05 A3031 RMK A01 T00011051  RH  069%=      5-min Rain = 0
KPVS 131610Z 18002KT 00/M05 A3032 RMK A01 T00031049  RH  069%=      5-min Rain = 0
KPVS 131615Z 18003KT 01/M05 A3032 RMK A01 T00111046  RH  066%=      5-min Rain = 0
KPVS 131620Z 20004KT 01/M05 A3032 RMK A01 T00121048  RH  065%=      5-min Rain = 0
KPVS 131625Z 20005KT 01/M05 A3033 RMK A01 T00131046  RH  066%=      5-min Rain = 0
KPVS 131630Z 21005KT 02/M04 A3032 RMK A01 T00201043  RH  064%=      5-min Rain = 0
KPVS 131635Z 21005KT 03/M04 A3032 RMK A01 T00281039  RH  062%=      5-min Rain = 0
KPVS 131640Z 19006KT 03/M04 A3032 RMK A01 T00341039  RH  060%=      5-min Rain = 0
KPVS 131645Z 18004KT 04/M04 A3032 RMK A01 T00411037  RH  057%=      5-min Rain = 0
KPVS 131650Z 18005G10KT 05/M04 A3031 RMK A01 T00481035  RH  056%=      5-min Rain = 0
KPVS 131655Z 19006KT 05/M03 A3031 RMK A01 T00471033  RH  057%=      5-min Rain = 0
KPVS 131700Z 20004KT 05/M03 A3031 RMK A01 T00501032  RH  056%=      5-min Rain = 0
KPVS 131705Z 19005KT 05/M03 A3031 RMK A01 T00511031  RH  056%=      5-min Rain = 0
KPVS 131710Z 21007G13KT 05/M03 A3031 RMK A01 T00541027  RH  057%=      5-min Rain = 0
KPVS 131715Z 21009KT 06/M02 A3031 RMK A01 T00551024  RH  057%=      5-min Rain = 0
KPVS 131720Z 21011KT 06/M02 A3031 RMK A01 T00591022  RH  057%=      5-min Rain = 0
KPVS 131725Z 21011KT 06/M02 A3031 RMK A01 T00611022  RH  056%=      5-min Rain = 0
KPVS 131730Z 22012KT 07/M02 A303 RMK A01 T00651022  RH  054%=      5-min Rain = 0
KPVS 131735Z 22010KT 07/M02 A303 RMK A01 T00651021  RH  055%=      5-min Rain = 0
KPVS 131740Z 22010G16KT 07/M02 A303 RMK A01 T00661021  RH  055%=      5-min Rain = 0
KPVS 131745Z 21011KT 07/M02 A303 RMK A01 T00711019  RH  053%=      5-min Rain = 0
KPVS 131750Z 22011G16KT 07/M02 A303 RMK A01 T00711019  RH  053%=      5-min Rain = 0
KPVS 131755Z 20008G13KT 07/M02 A303 RMK A01 T00731017  RH  053%=      5-min Rain = 0
KPVS 131800Z 21009KT 08/M02 A303 RMK A01 T00781015  RH  052%=      5-min Rain = 0
KPVS 131805Z 21010G16KT 08/M01 A3029 RMK A01 T00801014  RH  052%=      5-min Rain = 0
KPVS 131810Z 21009G14KT 08/M01 A3029 RMK A01 T00811013  RH  052%=      5-min Rain = 0
KPVS 131815Z 22008G13KT 08/M01 A3029 RMK A01 T00831012  RH  052%=      5-min Rain = 0
KPVS 131820Z 22010KT 09/M01 A3028 RMK A01 T00851012  RH  051%=      5-min Rain = 0
KPVS 131825Z 22010G16KT 09/M01 A3028 RMK A01 T00871012  RH  051%=      5-min Rain = 0
KPVS 131830Z 23008G13KT 09/M01 A3028 RMK A01 T00881012  RH  050%=      5-min Rain = 0
KPVS 131835Z 20009G14KT 09/M01 A3028 RMK A01 T00921012  RH  049%=      5-min Rain = 0
KPVS 131840Z 22010KT 09/M01 A3028 RMK A01 T00921014  RH  048%=      5-min Rain = 0
KPVS 131845Z 20009KT 09/M01 A3027 RMK A01 T00941014  RH  047%=      5-min Rain = 0
KPVS 131850Z 21007KT 10/M01 A3027 RMK A01 T00971014  RH  046%=      5-min Rain = 0
KPVS 131855Z 23008G14KT 10/M02 A3027 RMK A01 T00991015  RH  045%=      5-min Rain = 0
KPVS 131900Z 23008KT 10/M02 A3026 RMK A01 T00951016  RH  046%=      5-min Rain = 0
KPVS 131905Z 22009KT 10/M02 A3026 RMK A01 T00971016  RH  046%=      5-min Rain = 0
KPVS 131910Z 21010KT 10/M02 A3026 RMK A01 T01021015  RH  045%=      5-min Rain = 0
KPVS 131915Z 22009KT 10/M02 A3026 RMK A01 T01031015  RH  044%=      5-min Rain = 0
KPVS 131920Z 21009KT 11/M02 A3026 RMK A01 T01051015  RH  044%=      5-min Rain = 0
KPVS 131925Z 22010G16KT 11/M02 A3025 RMK A01 T01051015  RH  043%=      5-min Rain = 0
KPVS 131930Z 22009G15KT 11/M02 A3025 RMK A01 T01071015  RH  043%=      5-min Rain = 0
KPVS 131935Z 23011G18KT 11/M02 A3025 RMK A01 T01101015  RH  042%=      5-min Rain = 0
KPVS 131940Z 22011G17KT 11/M01 A3025 RMK A01 T01121014  RH  042%=      5-min Rain = 0
KPVS 131945Z 21009G14KT 12/M01 A3025 RMK A01 T01171013  RH  041%=      5-min Rain = 0
KPVS 131950Z 21009G14KT 12/M01 A3025 RMK A01 T01191013  RH  040%=      5-min Rain = 0
KPVS 131955Z 20008KT 12/M01 A3024 RMK A01 T01211013  RH  040%=      5-min Rain = 0
KPVS 132000Z 20008KT 12/M01 A3024 RMK A01 T01231012  RH  040%=      5-min Rain = 0
KPVS 132005Z 19008KT 13/M01 A3024 RMK A01 T01251011  RH  039%=      5-min Rain = 0
KPVS 132010Z 20007G13KT 13/M01 A3024 RMK A01 T01271010  RH  039%=      5-min Rain = 0
KPVS 132015Z 20009KT 13/M01 A3024 RMK A01 T01301009  RH  039%=      5-min Rain = 0
KPVS 132020Z 20010KT 13/M01 A3023 RMK A01 T01301010  RH  038%=      5-min Rain = 0
KPVS 132025Z 20007KT 13/M01 A3023 RMK A01 T01291010  RH  039%=      5-min Rain = 0
KPVS 132030Z 22008G13KT 13/M01 A3023 RMK A01 T01331008  RH  038%=      5-min Rain = 0
KPVS 132035Z 21009G14KT 14/M01 A3023 RMK A01 T01351009  RH  037%=      5-min Rain = 0
KPVS 132040Z 20008G13KT 14/M01 A3022 RMK A01 T01391006  RH  037%=      5-min Rain = 0
KPVS 132045Z 20010G15KT 14/M00 A3022 RMK A01 T01411002  RH  038%=      5-min Rain = 0
KPVS 132050Z 19009G14KT 14/00 A3022 RMK A01 T01430003  RH  039%=      5-min Rain = 0
KPVS 132055Z 20009G17KT 15/00 A3022 RMK A01 T01460002  RH  038%=      5-min Rain = 0
KPVS 132100Z 18010G16KT 15/01 A3022 RMK A01 T01470005  RH  038%=      5-min Rain = 0
KPVS 132105Z 19011G16KT 14/01 A3022 RMK A01 T01440009  RH  040%=      5-min Rain = 0
KPVS 132110Z 18010KT 15/01 A3022 RMK A01 T01470011  RH  040%=      5-min Rain = 0
KPVS 132115Z 19011KT 15/01 A3022 RMK A01 T01470012  RH  040%=      5-min Rain = 0
KPVS 132120Z 20010KT 15/01 A3022 RMK A01 T01450013  RH  041%=      5-min Rain = 0
KPVS 132125Z 19011KT 15/01 A3022 RMK A01 T01470012  RH  040%=      5-min Rain = 0
KPVS 132130Z 19009KT 15/01 A3022 RMK A01 T01460014  RH  041%=      5-min Rain = 0
KPVS 132135Z 21011KT 15/01 A3022 RMK A01 T01490014  RH  040%=      5-min Rain = 0
KPVS 132140Z 19010KT 15/02 A3022 RMK A01 T01480016  RH  041%=      5-min Rain = 0
KPVS 132145Z 19011KT 15/02 A3022 RMK A01 T01500017  RH  041%=      5-min Rain = 0
KPVS 132150Z 19012G17KT 15/02 A3022 RMK A01 T01510016  RH  040%=      5-min Rain = 0
KPVS 132155Z 19011KT 15/02 A3022 RMK A01 T01490015  RH  041%=      5-min Rain = 0
KPVS 132200Z 19011G16KT 15/02 A3022 RMK A01 T01480015  RH  041%=      5-min Rain = 0
KPVS 132205Z 18011G16KT 15/02 A3022 RMK A01 T01460017  RH  042%=      5-min Rain = 0
KPVS 132210Z 19012G17KT 15/02 A3022 RMK A01 T01480015  RH  041%=      5-min Rain = 0
KPVS 132215Z 19011G16KT 15/02 A3021 RMK A01 T01450015  RH  042%=      5-min Rain = 0
KPVS 132220Z 19011KT 15/02 A3022 RMK A01 T01460017  RH  042%=      5-min Rain = 0
KPVS 132225Z 18011G16KT 15/02 A3022 RMK A01 T01480017  RH  042%=      5-min Rain = 0
KPVS 132230Z 19012KT 15/02 A3021 RMK A01 T01490017  RH  041%=      5-min Rain = 0
KPVS 132235Z 18012KT 15/02 A3021 RMK A01 T01480017  RH  042%=      5-min Rain = 0
KPVS 132240Z 19013KT 15/02 A3021 RMK A01 T01470017  RH  042%=      5-min Rain = 0
KPVS 132245Z 19011G16KT 15/02 A3021 RMK A01 T01460017  RH  042%=      5-min Rain = 0
KPVS 132250Z 18011KT 15/02 A3022 RMK A01 T01480016  RH  041%=      5-min Rain = 0
KPVS 132255Z 19012G17KT 15/02 A3022 RMK A01 T01450017  RH  042%=      5-min Rain = 0
KPVS 132300Z 19011KT 15/02 A3021 RMK A01 T01470016  RH  042%=      5-min Rain = 0
KPVS 132305Z 19010G16KT 15/02 A3022 RMK A01 T01480016  RH  041%=      5-min Rain = 0
KPVS 132310Z 19012KT 15/02 A3022 RMK A01 T01460017  RH  042%=      5-min Rain = 0
KPVS 132315Z 19011KT 15/02 A3021 RMK A01 T01450016  RH  042%=      5-min Rain = 0
KPVS 132320Z 19011G16KT 15/02 A3022 RMK A01 T01450017  RH  042%=      5-min Rain = 0
KPVS 132325Z 19012KT 14/02 A3022 RMK A01 T01430017  RH  043%=      5-min Rain = 0
KPVS 132330Z 18012KT 14/02 A3021 RMK A01 T01420017  RH  043%=      5-min Rain = 0
KPVS 132335Z 18011KT 14/02 A3021 RMK A01 T01400017  RH  044%=      5-min Rain = 0
KPVS 132340Z 17009KT 14/02 A3021 RMK A01 T01370017  RH  045%=      5-min Rain = 0
KPVS 132345Z 18010KT 13/02 A3021 RMK A01 T01340017  RH  045%=      5-min Rain = 0
KPVS 132350Z 18009KT 13/02 A3022 RMK A01 T01330017  RH  046%=      5-min Rain = 0
KPVS 132355Z 18010KT 13/02 A3022 RMK A01 T01310017  RH  046%=      5-min Rain = 0
KPVS 140000Z 17009KT 13/02 A3022 RMK A01 T01300017  RH  047%=      5-min Rain = 0
KPVS 140005Z 17009KT 13/02 A3022 RMK A01 T01280016  RH  047%=      5-min Rain = 0
KPVS 140010Z 18008KT 13/02 A3022 RMK A01 T01260016  RH  047%=      5-min Rain = 0
KPVS 140015Z 18008KT 12/02 A3022 RMK A01 T01240015  RH  048%=      5-min Rain = 0
KPVS 140020Z 17006KT 12/02 A3022 RMK A01 T01210015  RH  049%=      5-min Rain = 0
KPVS 140025Z 18006KT 12/01 A3023 RMK A01 T01170014  RH  050%=      5-min Rain = 0
KPVS 140030Z 18006KT 11/01 A3023 RMK A01 T01140013  RH  050%=      5-min Rain = 0
KPVS 140035Z 18005KT 11/01 A3023 RMK A01 T01110013  RH  051%=      5-min Rain = 0
KPVS 140040Z 18004KT 11/01 A3023 RMK A01 T01100012  RH  052%=      5-min Rain = 0
KPVS 140045Z 16003KT 11/01 A3023 RMK A01 T01070012  RH  052%=      5-min Rain = 0
KPVS 140050Z 17003KT 11/01 A3022 RMK A01 T01060013  RH  053%=      5-min Rain = 0
KPVS 140055Z 17004KT 10/01 A3022 RMK A01 T01040013  RH  054%=      5-min Rain = 0
KPVS 140100Z 16004KT 10/01 A3022 RMK A01 T01030014  RH  055%=      5-min Rain = 0
KPVS 140105Z 16004KT 10/01 A3022 RMK A01 T01020013  RH  055%=      5-min Rain = 0
KPVS 140110Z 16005KT 10/01 A3022 RMK A01 T01000013  RH  055%=      5-min Rain = 0
KPVS 140115Z 16005KT 10/01 A3022 RMK A01 T00960011  RH  056%=      5-min Rain = 0
KPVS 140120Z 17005KT 09/01 A3022 RMK A01 T00920011  RH  058%=      5-min Rain = 0
KPVS 140125Z 17006KT 09/01 A3023 RMK A01 T00900011  RH  058%=      5-min Rain = 0
KPVS 140130Z 17005KT 09/01 A3023 RMK A01 T00890010  RH  059%=      5-min Rain = 0
KPVS 140135Z 16005KT 09/01 A3023 RMK A01 T00870010  RH  059%=      5-min Rain = 0
KPVS 140140Z 17005KT 09/01 A3023 RMK A01 T00850010  RH  060%=      5-min Rain = 0
KPVS 140145Z 17005KT 08/01 A3023 RMK A01 T00810009  RH  061%=      5-min Rain = 0
KPVS 140150Z 16006KT 08/01 A3023 RMK A01 T00780008  RH  062%=      5-min Rain = 0
KPVS 140155Z 16006KT 08/01 A3023 RMK A01 T00770009  RH  063%=      5-min Rain = 0
KPVS 140200Z 17005KT 08/01 A3023 RMK A01 T00780011  RH  063%=      5-min Rain = 0
KPVS 140205Z 16006KT 08/01 A3023 RMK A01 T00770011  RH  063%=      5-min Rain = 0
KPVS 140210Z 16007KT 08/01 A3023 RMK A01 T00790013  RH  064%=      5-min Rain = 0
KPVS 140215Z 16007KT 08/01 A3023 RMK A01 T00790014  RH  064%=      5-min Rain = 0
KPVS 140220Z 17006KT 08/01 A3023 RMK A01 T00780013  RH  064%=      5-min Rain = 0
KPVS 140225Z 17006KT 08/01 A3023 RMK A01 T00750012  RH  065%=      5-min Rain = 0
KPVS 140230Z 17007KT 08/01 A3023 RMK A01 T00760014  RH  066%=      5-min Rain = 0
KPVS 140235Z 16008KT 08/02 A3023 RMK A01 T00760015  RH  066%=      5-min Rain = 0
KPVS 140240Z 16007KT 08/02 A3023 RMK A01 T00760016  RH  067%=      5-min Rain = 0
KPVS 140245Z 17008KT 08/02 A3023 RMK A01 T00780019  RH  067%=      5-min Rain = 0
KPVS 140250Z 17007KT 08/02 A3023 RMK A01 T00800022  RH  068%=      5-min Rain = 0
KPVS 140255Z 17007KT 08/02 A3024 RMK A01 T00800021  RH  067%=      5-min Rain = 0
KPVS 140300Z 17007KT 08/02 A3024 RMK A01 T00770019  RH  068%=      5-min Rain = 0
KPVS 140305Z 17007KT 08/02 A3024 RMK A01 T00750020  RH  069%=      5-min Rain = 0
KPVS 140310Z 17008KT 08/02 A3024 RMK A01 T00750021  RH  070%=      5-min Rain = 0
KPVS 140315Z 17008KT 07/02 A3024 RMK A01 T00740021  RH  070%=      5-min Rain = 0
KPVS 140320Z 17007KT 07/02 A3024 RMK A01 T00740023  RH  071%=      5-min Rain = 0
KPVS 140325Z 17008KT 07/02 A3024 RMK A01 T00740022  RH  070%=      5-min Rain = 0
KPVS 140330Z 17008KT 07/02 A3024 RMK A01 T00720021  RH  071%=      5-min Rain = 0
KPVS 140335Z 18008KT 07/02 A3024 RMK A01 T00720023  RH  072%=      5-min Rain = 0
KPVS 140340Z 18008KT 08/03 A3024 RMK A01 T00760028  RH  073%=      5-min Rain = 0
KPVS 140345Z 18007KT 08/03 A3024 RMK A01 T00780028  RH  071%=      5-min Rain = 0
KPVS 140350Z 18007KT 08/03 A3024 RMK A01 T00770027  RH  071%=      5-min Rain = 0
KPVS 140355Z 18007KT 08/03 A3024 RMK A01 T00760026  RH  071%=      5-min Rain = 0
KPVS 140400Z 18007KT 08/03 A3024 RMK A01 T00750025  RH  072%=      5-min Rain = 0
KPVS 140405Z 18007KT 07/03 A3024 RMK A01 T00740025  RH  072%=      5-min Rain = 0
KPVS 140410Z 18007KT 07/03 A3024 RMK A01 T00730026  RH  073%=      5-min Rain = 0
KPVS 140415Z 18007KT 07/03 A3024 RMK A01 T00730025  RH  072%=      5-min Rain = 0
KPVS 140420Z 18007KT 07/03 A3024 RMK A01 T00730025  RH  073%=      5-min Rain = 0
KPVS 140425Z 19007KT 07/02 A3024 RMK A01 T00730024  RH  072%=      5-min Rain = 0
KPVS 140430Z 18007KT 07/02 A3023 RMK A01 T00710022  RH  072%=      5-min Rain = 0
KPVS 140435Z 19006KT 07/02 A3023 RMK A01 T00700023  RH  073%=      5-min Rain = 0
KPVS 140440Z 19007KT 07/02 A3023 RMK A01 T00720022  RH  072%=      5-min Rain = 0
KPVS 140445Z 19009KT 07/02 A3023 RMK A01 T00710022  RH  072%=      5-min Rain = 0
KPVS 140450Z 19009KT 07/02 A3023 RMK A01 T00710022  RH  072%=      5-min Rain = 0
KPVS 140455Z 19009KT 07/02 A3023 RMK A01 T00710022  RH  072%=      5-min Rain = 0
KPVS 140500Z 19009KT 07/02 A3023 RMK A01 T00710022  RH  072%=      5-min Rain = 0
KPVS 140505Z 18008KT 07/02 A3023 RMK A01 T00690019  RH  072%=      5-min Rain = 0
KPVS 140510Z 18008KT 07/02 A3023 RMK A01 T00660019  RH  073%=      5-min Rain = 0
KPVS 140515Z 19009KT 07/02 A3022 RMK A01 T00680020  RH  072%=      5-min Rain = 0
KPVS 140520Z 19008KT 07/02 A3022 RMK A01 T00690020  RH  072%=      5-min Rain = 0
KPVS 140525Z 20007KT 07/02 A3023 RMK A01 T00700022  RH  072%=      5-min Rain = 0
KPVS 140530Z 21004KT 07/02 A3022 RMK A01 T00740024  RH  071%=      5-min Rain = 0
KPVS 140535Z 24002KT 07/02 A3023 RMK A01 T00740021  RH  070%=      5-min Rain = 0
KPVS 140540Z 23003KT 07/02 A3023 RMK A01 T00650016  RH  072%=      5-min Rain = 0
KPVS 140545Z 21005KT 06/02 A3022 RMK A01 T00620019  RH  075%=      5-min Rain = 0
KPVS 140550Z 20006KT 07/02 A3022 RMK A01 T00680021  RH  073%=      5-min Rain = 0
KPVS 140555Z 21006KT 07/02 A3022 RMK A01 T00690021  RH  072%=      5-min Rain = 0

Page generated in 0.0143 seconds.